AirNav   Bose ProFlight Aviation Headset
 
 936 users online  

2MO4 Breckenridge Airport
Rockville, Missouri, USA

GOING TO ROCKVILLE?


FAA INFORMATION EFFECTIVE 08 NOVEMBER 2018

Location

FAA Identifier: 2MO4
Lat/Long: 38-06-52.0000N / 094-10-36.0000W
38-06.866667N / 094-10.600000W
38.1144444 / -94.1766667
(estimated)
Elevation: 805 ft. / 245 m (estimated)
Variation: 04E (1990)
From city: 6 miles NW of ROCKVILLE, MO
Time zone: UTC -6 (UTC -5 during Daylight Saving Time)
Zip code: 64724

Airport Operations

Airport use: Private use. Permission required prior to landing
Activation date: 05/1992
Control tower: no
ARTCC: KANSAS CITY CENTER
FSS: COLUMBIA FLIGHT SERVICE STATION
Attendance: UNATNDD
Wind indicator: yes
Segmented circle: no

Airport Communications

WX AWOS-3 at NVD (17 nm S): 119.175 (417-448-1635)

Nearby radio navigation aids

VOR radial/distance  VOR name  Freq  Var
BUMr116/17.5BUTLER VORTAC115.9007E

 
NDB name  Hdg/Dist  Freq  Var  ID
GOLDEN VALLEY237/27.438801EGLY --. .-.. -.--

Airport Services

Runway Information

Runway 18/36

Dimensions: 2500 x 60 ft. / 762 x 18 m
Surface: turf
RUNWAY 18  RUNWAY 36
Traffic pattern: leftright
Displaced threshold: 100 ft.no
Obstructions: 4 ft. fence, 100 ft. from runway20 ft. plines, 1420 ft. from runway

Airport Ownership and Management from official FAA records

Ownership: Privately-owned
Owner: JIM BRECKENRIDGE
RT. 3
APPLETON CITY, MO 64724
Phone 417-395-2397
Manager: JIM BRECKENRIDGE
RT. 3
APPLETON CITY, MO 64724
Phone 417-395-2397

Airport Operational Statistics

Aircraft based on the field: 1
Single engine airplanes: 1
    

Instrument Procedures

There are no published instrument procedures at 2MO4.

Some nearby airports with instrument procedures:

KBUM - Butler Memorial Airport (13 nm NW)
KNVD - Nevada Municipal Airport (17 nm S)
KGLY - Clinton Regional Airport (28 nm NE)
KLRY - Lawrence Smith Memorial Airport (31 nm N)
MO3 - Stockton Municipal Airport (32 nm SE)
 
Loc | Ops | Rwys | IFR | FBO | Links
Com | Nav | Svcs | Stats | Notes

Kansas City Aviation Department
 
Area around 2MO4 (Breckenridge Airport)
 
Road maps at: MapQuest Bing Google
 
Aerial photo
No photo
 
Sectional chart

 
Airport distance calculator
Flying to Breckenridge Airport? Find the distance to fly.

From to 2MO4

Sunrise and sunset
Times for 18-Nov-2018
 Local
(UTC-6)
 Zulu
(UTC)
Morning civil twilight06:3412:34
Sunrise07:0213:02
Sunset17:0223:02
Evening civil twilight17:3023:30

Current date and time
Zulu (UTC)  18-Nov-2018 18:40:22
Local (UTC-6)  18-Nov-2018 12:40:22
 
METAR
KGLY 
27nm NE 
181815Z AUTO 00000KT 7SM OVC008 00/M02 A3030 RMK AO2
KLRY 
31nm N 
181815Z AUTO 02005KT 7SM -SN OVC014 01/M01 A3032 RMK AO2
KRAW 
42nm E 
181815Z AUTO 36006KT 4SM BR OVC004 A3028 RMK AO2
KRCM 
44nm NE 
181815Z AUTO 35007KT 10SM BKN011 OVC021 00/M02 A3030 RMK AO2
KSZL 
47nm NE 
181756Z 01007KT 10SM OVC011 M01/M03 A3027 RMK AO2A SLP262 T10091033 11009 21023 57011 $
KPTS 
48nm SW 
181815Z AUTO 36006KT 7SM OVC007 00/M02 A3028 RMK AO2 T10011016
TAF
KSZL 
47nm NE 
181650Z 1816/1917 01009KT 9999 OVC009 620095 QNH3027INS BECMG 1817/1818 01009KT 9999 SCT004 OVC010 620105 QNH3025INS BECMG 1818/1819 35009KT 9999 BKN015 620153 QNH3020INS BECMG 1902/1903 22006KT 9999 BKN020 600202 QNH3010INS TX02/1821Z TNM02/1816Z
NOTAMs
Click for the latest NOTAMs
NOTAMs are issued by the DoD/FAA and will open in a separate window not controlled by AirNav.

 

 
 

Would you like to see your business listed on this page?

 If your business provides an interesting product or service to pilots, flight crews, aircraft, or users of the Breckenridge Airport, you should consider listing it here.  To start the listing process, click on the button below
 
Add a business
 

Other Pages about Breckenridge Airport

Update a link
 
Copyright © AirNav, LLC. All rights reserved. Privacy Policy  Contact